sensor_id;sensor_type;location;lat;lon;timestamp;P1;durP1;ratioP1;P2;durP2;ratioP2
17741;SDS011;8993;51.822;-2.268;2023-06-22T00:02:55;7.35;;;4.86;;
17741;SDS011;8993;51.822;-2.268;2023-06-22T00:08:01;11.25;;;6.01;;
17741;SDS011;8993;51.822;-2.268;2023-06-22T00:13:02;9.40;;;5.83;;
17741;SDS011;8993;51.822;-2.268;2023-06-22T00:18:07;9.18;;;5.84;;
17741;SDS011;8993;51.822;-2.268;2023-06-22T00:23:10;6.71;;;4.99;;
17741;SDS011;8993;51.822;-2.268;2023-06-22T00:28:14;9.99;;;5.58;;
17741;SDS011;8993;51.822;-2.268;2023-06-22T00:33:18;7.17;;;5.16;;
17741;SDS011;8993;51.822;-2.268;2023-06-22T00:38:22;10.70;;;6.09;;
17741;SDS011;8993;51.822;-2.268;2023-06-22T00:43:26;9.01;;;5.82;;
17741;SDS011;8993;51.822;-2.268;2023-06-22T00:48:30;9.95;;;5.84;;
17741;SDS011;8993;51.822;-2.268;2023-06-22T00:53:35;9.39;;;5.94;;
17741;SDS011;8993;51.822;-2.268;2023-06-22T00:58:40;9.63;;;7.05;;
17741;SDS011;8993;51.822;-2.268;2023-06-22T01:03:44;12.13;;;7.66;;
17741;SDS011;8993;51.822;-2.268;2023-06-22T01:08:49;11.84;;;7.40;;
17741;SDS011;8993;51.822;-2.268;2023-06-22T01:13:56;11.26;;;7.62;;
17741;SDS011;8993;51.822;-2.268;2023-06-22T01:18:59;13.49;;;8.37;;
17741;SDS011;8993;51.822;-2.268;2023-06-22T01:24:06;12.25;;;8.02;;
17741;SDS011;8993;51.822;-2.268;2023-06-22T01:29:06;14.24;;;8.61;;
17741;SDS011;8993;51.822;-2.268;2023-06-22T01:34:11;12.37;;;7.88;;
17741;SDS011;8993;51.822;-2.268;2023-06-22T01:39:15;10.80;;;7.73;;
17741;SDS011;8993;51.822;-2.268;2023-06-22T01:44:20;8.74;;;6.51;;
17741;SDS011;8993;51.822;-2.268;2023-06-22T01:49:24;13.15;;;8.57;;
17741;SDS011;8993;51.822;-2.268;2023-06-22T01:54:29;10.64;;;8.03;;
17741;SDS011;8993;51.822;-2.268;2023-06-22T01:59:34;14.09;;;9.30;;
17741;SDS011;8993;51.822;-2.268;2023-06-22T02:04:38;14.94;;;8.55;;
17741;SDS011;8993;51.822;-2.268;2023-06-22T02:09:42;13.37;;;9.33;;
17741;SDS011;8993;51.822;-2.268;2023-06-22T02:14:46;13.21;;;8.46;;
17741;SDS011;8993;51.822;-2.268;2023-06-22T02:19:51;15.60;;;10.04;;
17741;SDS011;8993;51.822;-2.268;2023-06-22T02:24:56;15.77;;;10.29;;
17741;SDS011;8993;51.822;-2.268;2023-06-22T02:30:00;14.55;;;9.89;;
17741;SDS011;8993;51.822;-2.268;2023-06-22T02:35:04;17.74;;;10.64;;
17741;SDS011;8993;51.822;-2.268;2023-06-22T02:40:08;18.97;;;11.26;;
17741;SDS011;8993;51.822;-2.268;2023-06-22T02:45:13;13.95;;;9.36;;
17741;SDS011;8993;51.822;-2.268;2023-06-22T02:50:17;14.96;;;10.14;;
17741;SDS011;8993;51.822;-2.268;2023-06-22T02:55:21;13.96;;;9.09;;
17741;SDS011;8993;51.822;-2.268;2023-06-22T03:00:26;18.03;;;10.85;;
17741;SDS011;8993;51.822;-2.268;2023-06-22T03:05:30;12.56;;;8.70;;
17741;SDS011;8993;51.822;-2.268;2023-06-22T03:10:35;19.13;;;12.00;;
17741;SDS011;8993;51.822;-2.268;2023-06-22T03:15:38;15.52;;;10.22;;
17741;SDS011;8993;51.822;-2.268;2023-06-22T03:20:43;16.41;;;11.04;;
17741;SDS011;8993;51.822;-2.268;2023-06-22T03:25:47;12.60;;;8.83;;
17741;SDS011;8993;51.822;-2.268;2023-06-22T03:30:52;13.94;;;9.64;;
17741;SDS011;8993;51.822;-2.268;2023-06-22T03:35:56;12.72;;;9.15;;
17741;SDS011;8993;51.822;-2.268;2023-06-22T03:41:00;12.40;;;8.63;;
17741;SDS011;8993;51.822;-2.268;2023-06-22T03:46:05;18.61;;;11.32;;
17741;SDS011;8993;51.822;-2.268;2023-06-22T03:51:09;14.14;;;9.81;;
17741;SDS011;8993;51.822;-2.268;2023-06-22T03:56:14;14.25;;;9.79;;
17741;SDS011;8993;51.822;-2.268;2023-06-22T04:01:19;13.04;;;9.34;;
17741;SDS011;8993;51.822;-2.268;2023-06-22T04:06:24;14.90;;;10.35;;
17741;SDS011;8993;51.822;-2.268;2023-06-22T04:11:32;17.70;;;10.43;;
17741;SDS011;8993;51.822;-2.268;2023-06-22T04:16:36;13.19;;;9.22;;
17741;SDS011;8993;51.822;-2.268;2023-06-22T04:21:40;14.67;;;9.71;;
17741;SDS011;8993;51.822;-2.268;2023-06-22T04:26:45;15.47;;;9.74;;
17741;SDS011;8993;51.822;-2.268;2023-06-22T04:31:49;10.58;;;7.54;;
17741;SDS011;8993;51.822;-2.268;2023-06-22T04:36:54;15.05;;;9.80;;
17741;SDS011;8993;51.822;-2.268;2023-06-22T04:41:58;14.60;;;9.47;;
17741;SDS011;8993;51.822;-2.268;2023-06-22T04:47:03;15.29;;;9.92;;
17741;SDS011;8993;51.822;-2.268;2023-06-22T04:52:08;13.67;;;8.25;;
17741;SDS011;8993;51.822;-2.268;2023-06-22T04:57:12;14.63;;;9.99;;
17741;SDS011;8993;51.822;-2.268;2023-06-22T05:02:16;10.05;;;7.25;;
17741;SDS011;8993;51.822;-2.268;2023-06-22T05:07:21;9.82;;;6.77;;
17741;SDS011;8993;51.822;-2.268;2023-06-22T05:12:27;17.11;;;10.49;;
17741;SDS011;8993;51.822;-2.268;2023-06-22T05:17:30;13.71;;;9.00;;
17741;SDS011;8993;51.822;-2.268;2023-06-22T05:22:34;12.36;;;8.41;;
17741;SDS011;8993;51.822;-2.268;2023-06-22T05:27:39;16.55;;;10.26;;
17741;SDS011;8993;51.822;-2.268;2023-06-22T05:37:48;14.54;;;10.34;;
17741;SDS011;8993;51.822;-2.268;2023-06-22T05:42:53;14.33;;;10.06;;
17741;SDS011;8993;51.822;-2.268;2023-06-22T05:47:57;14.10;;;9.33;;
17741;SDS011;8993;51.822;-2.268;2023-06-22T05:53:01;11.46;;;7.19;;
17741;SDS011;8993;51.822;-2.268;2023-06-22T05:58:06;11.49;;;6.36;;
17741;SDS011;8993;51.822;-2.268;2023-06-22T06:03:10;10.00;;;5.57;;
17741;SDS011;8993;51.822;-2.268;2023-06-22T06:08:15;9.79;;;5.25;;
17741;SDS011;8993;51.822;-2.268;2023-06-22T06:13:19;7.94;;;4.67;;
17741;SDS011;8993;51.822;-2.268;2023-06-22T06:18:24;9.40;;;5.29;;
17741;SDS011;8993;51.822;-2.268;2023-06-22T06:23:29;8.78;;;4.97;;
17741;SDS011;8993;51.822;-2.268;2023-06-22T06:28:33;10.34;;;5.05;;
17741;SDS011;8993;51.822;-2.268;2023-06-22T06:33:37;10.70;;;4.93;;
17741;SDS011;8993;51.822;-2.268;2023-06-22T06:38:42;8.82;;;5.26;;
17741;SDS011;8993;51.822;-2.268;2023-06-22T06:43:48;8.32;;;4.72;;
17741;SDS011;8993;51.822;-2.268;2023-06-22T06:48:52;8.73;;;4.72;;
17741;SDS011;8993;51.822;-2.268;2023-06-22T06:53:56;6.66;;;4.32;;
17741;SDS011;8993;51.822;-2.268;2023-06-22T06:59:01;7.24;;;4.16;;
17741;SDS011;8993;51.822;-2.268;2023-06-22T07:04:05;10.01;;;4.62;;
17741;SDS011;8993;51.822;-2.268;2023-06-22T07:09:10;7.39;;;4.41;;
17741;SDS011;8993;51.822;-2.268;2023-06-22T07:14:14;8.65;;;4.06;;
17741;SDS011;8993;51.822;-2.268;2023-06-22T07:19:24;11.27;;;4.73;;
17741;SDS011;8993;51.822;-2.268;2023-06-22T07:24:23;7.45;;;4.06;;
17741;SDS011;8993;51.822;-2.268;2023-06-22T07:29:27;9.36;;;4.71;;
17741;SDS011;8993;51.822;-2.268;2023-06-22T07:34:32;7.09;;;4.04;;
17741;SDS011;8993;51.822;-2.268;2023-06-22T07:39:36;7.26;;;4.15;;
17741;SDS011;8993;51.822;-2.268;2023-06-22T07:44:41;8.83;;;4.19;;
17741;SDS011;8993;51.822;-2.268;2023-06-22T07:49:45;7.76;;;4.09;;
17741;SDS011;8993;51.822;-2.268;2023-06-22T07:54:52;7.62;;;4.23;;
17741;SDS011;8993;51.822;-2.268;2023-06-22T07:59:56;8.87;;;4.63;;
17741;SDS011;8993;51.822;-2.268;2023-06-22T08:05:00;7.00;;;4.41;;
17741;SDS011;8993;51.822;-2.268;2023-06-22T08:10:05;7.81;;;4.79;;
17741;SDS011;8993;51.822;-2.268;2023-06-22T08:15:09;8.51;;;5.19;;
17741;SDS011;8993;51.822;-2.268;2023-06-22T08:20:14;6.64;;;4.90;;
17741;SDS011;8993;51.822;-2.268;2023-06-22T08:25:18;10.15;;;5.94;;
17741;SDS011;8993;51.822;-2.268;2023-06-22T08:30:22;8.28;;;5.46;;
17741;SDS011;8993;51.822;-2.268;2023-06-22T08:35:26;7.15;;;4.84;;
17741;SDS011;8993;51.822;-2.268;2023-06-22T08:40:31;9.79;;;5.53;;
17741;SDS011;8993;51.822;-2.268;2023-06-22T08:45:36;9.54;;;5.64;;
17741;SDS011;8993;51.822;-2.268;2023-06-22T08:50:40;8.27;;;5.01;;
17741;SDS011;8993;51.822;-2.268;2023-06-22T08:55:45;9.41;;;5.14;;
17741;SDS011;8993;51.822;-2.268;2023-06-22T09:00:49;9.19;;;5.65;;
17741;SDS011;8993;51.822;-2.268;2023-06-22T09:05:54;11.33;;;5.05;;
17741;SDS011;8993;51.822;-2.268;2023-06-22T09:10:58;10.72;;;5.59;;
17741;SDS011;8993;51.822;-2.268;2023-06-22T09:16:03;7.49;;;4.60;;
17741;SDS011;8993;51.822;-2.268;2023-06-22T09:21:08;8.00;;;4.57;;
17741;SDS011;8993;51.822;-2.268;2023-06-22T09:26:12;8.58;;;4.82;;
17741;SDS011;8993;51.822;-2.268;2023-06-22T09:31:17;7.39;;;4.21;;
17741;SDS011;8993;51.822;-2.268;2023-06-22T09:36:21;7.57;;;4.38;;
17741;SDS011;8993;51.822;-2.268;2023-06-22T09:41:26;6.20;;;3.90;;
17741;SDS011;8993;51.822;-2.268;2023-06-22T09:46:30;6.24;;;3.24;;
17741;SDS011;8993;51.822;-2.268;2023-06-22T09:51:35;5.25;;;3.27;;
17741;SDS011;8993;51.822;-2.268;2023-06-22T09:56:39;5.81;;;2.91;;
17741;SDS011;8993;51.822;-2.268;2023-06-22T10:01:44;6.15;;;3.08;;
17741;SDS011;8993;51.822;-2.268;2023-06-22T10:06:48;5.24;;;2.53;;
17741;SDS011;8993;51.822;-2.268;2023-06-22T10:11:52;5.42;;;3.31;;
17741;SDS011;8993;51.822;-2.268;2023-06-22T10:16:57;4.24;;;2.19;;
17741;SDS011;8993;51.822;-2.268;2023-06-22T10:22:01;4.04;;;2.44;;
17741;SDS011;8993;51.822;-2.268;2023-06-22T10:27:06;4.98;;;2.31;;
17741;SDS011;8993;51.822;-2.268;2023-06-22T10:32:10;5.06;;;2.48;;
17741;SDS011;8993;51.822;-2.268;2023-06-22T10:37:15;4.62;;;2.48;;
17741;SDS011;8993;51.822;-2.268;2023-06-22T10:42:19;4.19;;;2.34;;
17741;SDS011;8993;51.822;-2.268;2023-06-22T10:47:23;4.17;;;2.21;;
17741;SDS011;8993;51.822;-2.268;2023-06-22T10:52:28;4.68;;;2.63;;
17741;SDS011;8993;51.822;-2.268;2023-06-22T10:57:32;5.31;;;2.35;;
17741;SDS011;8993;51.822;-2.268;2023-06-22T11:02:36;5.83;;;2.46;;
17741;SDS011;8993;51.822;-2.268;2023-06-22T11:07:42;3.53;;;2.31;;
17741;SDS011;8993;51.822;-2.268;2023-06-22T11:12:45;3.00;;;1.97;;
17741;SDS011;8993;51.822;-2.268;2023-06-22T11:17:49;4.22;;;2.01;;
17741;SDS011;8993;51.822;-2.268;2023-06-22T11:22:53;3.82;;;2.09;;
17741;SDS011;8993;51.822;-2.268;2023-06-22T11:27:57;5.55;;;2.22;;
17741;SDS011;8993;51.822;-2.268;2023-06-22T11:33:01;3.59;;;2.09;;
17741;SDS011;8993;51.822;-2.268;2023-06-22T11:38:06;3.42;;;1.82;;
17741;SDS011;8993;51.822;-2.268;2023-06-22T11:43:10;3.49;;;1.90;;
17741;SDS011;8993;51.822;-2.268;2023-06-22T11:48:14;3.38;;;1.94;;
17741;SDS011;8993;51.822;-2.268;2023-06-22T11:53:18;3.73;;;1.96;;
17741;SDS011;8993;51.822;-2.268;2023-06-22T11:58:23;4.94;;;2.12;;
17741;SDS011;8993;51.822;-2.268;2023-06-22T12:03:27;3.56;;;1.93;;
17741;SDS011;8993;51.822;-2.268;2023-06-22T12:08:32;4.75;;;2.20;;
17741;SDS011;8993;51.822;-2.268;2023-06-22T12:13:36;2.98;;;1.66;;
17741;SDS011;8993;51.822;-2.268;2023-06-22T12:18:40;3.81;;;1.82;;
17741;SDS011;8993;51.822;-2.268;2023-06-22T12:23:44;2.90;;;1.89;;
17741;SDS011;8993;51.822;-2.268;2023-06-22T12:28:48;4.49;;;1.65;;
17741;SDS011;8993;51.822;-2.268;2023-06-22T12:33:53;2.76;;;1.47;;
17741;SDS011;8993;51.822;-2.268;2023-06-22T12:38:57;3.18;;;1.47;;
17741;SDS011;8993;51.822;-2.268;2023-06-22T12:44:01;2.57;;;1.33;;
17741;SDS011;8993;51.822;-2.268;2023-06-22T12:49:05;3.56;;;1.46;;
17741;SDS011;8993;51.822;-2.268;2023-06-22T12:54:09;2.05;;;1.35;;
17741;SDS011;8993;51.822;-2.268;2023-06-22T12:59:13;3.50;;;1.50;;
17741;SDS011;8993;51.822;-2.268;2023-06-22T13:04:17;4.87;;;1.59;;
17741;SDS011;8993;51.822;-2.268;2023-06-22T13:09:23;2.52;;;1.62;;
17741;SDS011;8993;51.822;-2.268;2023-06-22T13:14:27;2.59;;;1.42;;
17741;SDS011;8993;51.822;-2.268;2023-06-22T13:19:32;3.18;;;1.51;;
17741;SDS011;8993;51.822;-2.268;2023-06-22T13:24:36;2.85;;;1.23;;
17741;SDS011;8993;51.822;-2.268;2023-06-22T13:29:40;2.03;;;1.24;;
17741;SDS011;8993;51.822;-2.268;2023-06-22T13:34:44;2.90;;;1.33;;
17741;SDS011;8993;51.822;-2.268;2023-06-22T13:39:49;2.05;;;1.26;;
17741;SDS011;8993;51.822;-2.268;2023-06-22T13:44:54;2.53;;;1.19;;
17741;SDS011;8993;51.822;-2.268;2023-06-22T13:49:58;2.55;;;1.29;;
17741;SDS011;8993;51.822;-2.268;2023-06-22T13:55:02;3.74;;;1.35;;
17741;SDS011;8993;51.822;-2.268;2023-06-22T14:00:06;2.24;;;1.34;;
17741;SDS011;8993;51.822;-2.268;2023-06-22T14:05:10;2.97;;;1.27;;
17741;SDS011;8993;51.822;-2.268;2023-06-22T14:10:14;2.16;;;1.34;;
17741;SDS011;8993;51.822;-2.268;2023-06-22T14:15:18;2.21;;;1.19;;
17741;SDS011;8993;51.822;-2.268;2023-06-22T14:20:23;2.15;;;1.26;;
17741;SDS011;8993;51.822;-2.268;2023-06-22T14:25:27;2.05;;;1.25;;
17741;SDS011;8993;51.822;-2.268;2023-06-22T14:30:31;2.26;;;1.26;;
17741;SDS011;8993;51.822;-2.268;2023-06-22T14:35:35;3.22;;;1.52;;
17741;SDS011;8993;51.822;-2.268;2023-06-22T14:40:40;5.05;;;1.79;;
17741;SDS011;8993;51.822;-2.268;2023-06-22T14:45:44;2.72;;;1.64;;
17741;SDS011;8993;51.822;-2.268;2023-06-22T14:50:48;2.93;;;1.76;;
17741;SDS011;8993;51.822;-2.268;2023-06-22T14:55:52;3.31;;;1.60;;
17741;SDS011;8993;51.822;-2.268;2023-06-22T15:00:57;2.80;;;1.50;;
17741;SDS011;8993;51.822;-2.268;2023-06-22T15:06:02;2.72;;;1.64;;
17741;SDS011;8993;51.822;-2.268;2023-06-22T15:11:06;3.61;;;1.60;;
17741;SDS011;8993;51.822;-2.268;2023-06-22T15:16:10;2.93;;;1.64;;
17741;SDS011;8993;51.822;-2.268;2023-06-22T15:21:14;3.89;;;2.00;;
17741;SDS011;8993;51.822;-2.268;2023-06-22T15:26:19;2.55;;;1.53;;
17741;SDS011;8993;51.822;-2.268;2023-06-22T15:31:24;2.49;;;1.45;;
17741;SDS011;8993;51.822;-2.268;2023-06-22T15:36:28;2.21;;;1.38;;
17741;SDS011;8993;51.822;-2.268;2023-06-22T15:41:32;2.69;;;1.49;;
17741;SDS011;8993;51.822;-2.268;2023-06-22T15:46:36;3.64;;;1.53;;
17741;SDS011;8993;51.822;-2.268;2023-06-22T15:51:42;3.63;;;1.62;;
17741;SDS011;8993;51.822;-2.268;2023-06-22T15:56:47;3.96;;;1.60;;
17741;SDS011;8993;51.822;-2.268;2023-06-22T16:01:51;5.84;;;1.70;;
17741;SDS011;8993;51.822;-2.268;2023-06-22T16:06:56;4.13;;;1.63;;
17741;SDS011;8993;51.822;-2.268;2023-06-22T16:12:00;4.31;;;1.85;;
17741;SDS011;8993;51.822;-2.268;2023-06-22T16:17:05;4.85;;;1.75;;
17741;SDS011;8993;51.822;-2.268;2023-06-22T16:22:08;4.43;;;1.77;;
17741;SDS011;8993;51.822;-2.268;2023-06-22T16:27:13;4.54;;;1.87;;
17741;SDS011;8993;51.822;-2.268;2023-06-22T16:32:17;3.52;;;1.84;;
17741;SDS011;8993;51.822;-2.268;2023-06-22T16:37:21;5.42;;;1.96;;
17741;SDS011;8993;51.822;-2.268;2023-06-22T16:42:25;4.23;;;1.95;;
17741;SDS011;8993;51.822;-2.268;2023-06-22T16:47:30;4.23;;;1.95;;
17741;SDS011;8993;51.822;-2.268;2023-06-22T16:52:34;4.16;;;1.72;;
17741;SDS011;8993;51.822;-2.268;2023-06-22T16:57:38;3.75;;;1.79;;
17741;SDS011;8993;51.822;-2.268;2023-06-22T17:02:44;3.98;;;1.76;;
17741;SDS011;8993;51.822;-2.268;2023-06-22T17:07:48;4.45;;;1.89;;
17741;SDS011;8993;51.822;-2.268;2023-06-22T17:12:51;3.67;;;1.71;;
17741;SDS011;8993;51.822;-2.268;2023-06-22T17:17:56;4.44;;;1.71;;
17741;SDS011;8993;51.822;-2.268;2023-06-22T17:23:00;3.20;;;1.69;;
17741;SDS011;8993;51.822;-2.268;2023-06-22T17:28:04;3.50;;;1.67;;
17741;SDS011;8993;51.822;-2.268;2023-06-22T17:33:09;3.53;;;1.64;;
17741;SDS011;8993;51.822;-2.268;2023-06-22T17:38:18;2.94;;;1.73;;
17741;SDS011;8993;51.822;-2.268;2023-06-22T17:43:18;2.72;;;1.42;;
17741;SDS011;8993;51.822;-2.268;2023-06-22T17:48:22;3.17;;;1.54;;
17741;SDS011;8993;51.822;-2.268;2023-06-22T17:53:25;3.53;;;1.76;;
17741;SDS011;8993;51.822;-2.268;2023-06-22T17:58:30;2.67;;;1.31;;
17741;SDS011;8993;51.822;-2.268;2023-06-22T18:03:34;3.85;;;1.74;;
17741;SDS011;8993;51.822;-2.268;2023-06-22T18:08:38;4.49;;;2.44;;
17741;SDS011;8993;51.822;-2.268;2023-06-22T18:13:42;4.20;;;1.94;;
17741;SDS011;8993;51.822;-2.268;2023-06-22T18:18:46;3.95;;;1.56;;
17741;SDS011;8993;51.822;-2.268;2023-06-22T18:23:51;3.34;;;1.60;;
17741;SDS011;8993;51.822;-2.268;2023-06-22T18:28:55;2.54;;;1.57;;
17741;SDS011;8993;51.822;-2.268;2023-06-22T18:34:00;3.12;;;1.55;;
17741;SDS011;8993;51.822;-2.268;2023-06-22T18:39:04;3.27;;;1.72;;
17741;SDS011;8993;51.822;-2.268;2023-06-22T18:44:10;3.49;;;1.78;;
17741;SDS011;8993;51.822;-2.268;2023-06-22T18:49:12;3.83;;;1.75;;
17741;SDS011;8993;51.822;-2.268;2023-06-22T18:54:18;5.06;;;2.28;;
17741;SDS011;8993;51.822;-2.268;2023-06-22T19:04:25;3.75;;;2.28;;
17741;SDS011;8993;51.822;-2.268;2023-06-22T19:09:29;6.14;;;2.65;;
17741;SDS011;8993;51.822;-2.268;2023-06-22T19:14:33;4.01;;;2.35;;
17741;SDS011;8993;51.822;-2.268;2023-06-22T19:19:38;4.67;;;2.72;;
17741;SDS011;8993;51.822;-2.268;2023-06-22T19:24:47;5.93;;;2.84;;
17741;SDS011;8993;51.822;-2.268;2023-06-22T19:29:46;4.44;;;2.71;;
17741;SDS011;8993;51.822;-2.268;2023-06-22T19:34:50;5.24;;;2.92;;
17741;SDS011;8993;51.822;-2.268;2023-06-22T19:39:55;5.45;;;2.89;;
17741;SDS011;8993;51.822;-2.268;2023-06-22T19:45:00;5.66;;;2.83;;
17741;SDS011;8993;51.822;-2.268;2023-06-22T19:50:05;5.88;;;2.96;;
17741;SDS011;8993;51.822;-2.268;2023-06-22T19:55:09;5.37;;;2.96;;
17741;SDS011;8993;51.822;-2.268;2023-06-22T20:00:15;6.54;;;3.04;;
17741;SDS011;8993;51.822;-2.268;2023-06-22T20:05:19;5.16;;;3.04;;
17741;SDS011;8993;51.822;-2.268;2023-06-22T20:10:22;6.96;;;3.31;;
17741;SDS011;8993;51.822;-2.268;2023-06-22T20:15:27;6.27;;;3.35;;
17741;SDS011;8993;51.822;-2.268;2023-06-22T20:20:31;6.89;;;3.46;;
17741;SDS011;8993;51.822;-2.268;2023-06-22T20:25:36;6.40;;;3.51;;
17741;SDS011;8993;51.822;-2.268;2023-06-22T20:30:42;7.02;;;3.80;;
17741;SDS011;8993;51.822;-2.268;2023-06-22T20:35:44;7.88;;;4.22;;
17741;SDS011;8993;51.822;-2.268;2023-06-22T20:40:49;7.59;;;3.98;;
17741;SDS011;8993;51.822;-2.268;2023-06-22T20:45:53;7.94;;;4.05;;
17741;SDS011;8993;51.822;-2.268;2023-06-22T20:50:58;6.94;;;4.06;;
17741;SDS011;8993;51.822;-2.268;2023-06-22T20:56:03;6.56;;;3.87;;
17741;SDS011;8993;51.822;-2.268;2023-06-22T21:01:08;8.08;;;4.41;;
17741;SDS011;8993;51.822;-2.268;2023-06-22T21:06:12;8.93;;;4.81;;
17741;SDS011;8993;51.822;-2.268;2023-06-22T21:11:16;9.63;;;4.91;;
17741;SDS011;8993;51.822;-2.268;2023-06-22T21:16:21;8.52;;;4.67;;
17741;SDS011;8993;51.822;-2.268;2023-06-22T21:21:25;6.68;;;4.70;;
17741;SDS011;8993;51.822;-2.268;2023-06-22T21:26:29;6.33;;;4.22;;
17741;SDS011;8993;51.822;-2.268;2023-06-22T21:31:33;7.94;;;4.74;;
17741;SDS011;8993;51.822;-2.268;2023-06-22T21:36:37;5.86;;;4.01;;
17741;SDS011;8993;51.822;-2.268;2023-06-22T21:41:42;6.00;;;4.11;;
17741;SDS011;8993;51.822;-2.268;2023-06-22T21:46:46;6.05;;;4.25;;
17741;SDS011;8993;51.822;-2.268;2023-06-22T21:51:50;6.86;;;4.56;;
17741;SDS011;8993;51.822;-2.268;2023-06-22T21:56:54;5.71;;;4.10;;
17741;SDS011;8993;51.822;-2.268;2023-06-22T22:01:58;6.15;;;3.99;;
17741;SDS011;8993;51.822;-2.268;2023-06-22T22:07:02;7.06;;;4.57;;
17741;SDS011;8993;51.822;-2.268;2023-06-22T22:12:06;7.25;;;4.90;;
17741;SDS011;8993;51.822;-2.268;2023-06-22T22:17:10;8.32;;;5.44;;
17741;SDS011;8993;51.822;-2.268;2023-06-22T22:22:14;10.09;;;5.88;;
17741;SDS011;8993;51.822;-2.268;2023-06-22T22:27:18;8.84;;;5.73;;
17741;SDS011;8993;51.822;-2.268;2023-06-22T22:32:23;8.77;;;5.83;;
17741;SDS011;8993;51.822;-2.268;2023-06-22T22:37:27;9.32;;;6.47;;
17741;SDS011;8993;51.822;-2.268;2023-06-22T22:42:32;8.74;;;6.45;;
17741;SDS011;8993;51.822;-2.268;2023-06-22T22:47:36;9.90;;;6.43;;
17741;SDS011;8993;51.822;-2.268;2023-06-22T22:52:40;9.01;;;6.31;;
17741;SDS011;8993;51.822;-2.268;2023-06-22T22:57:45;8.04;;;5.63;;
17741;SDS011;8993;51.822;-2.268;2023-06-22T23:02:49;7.42;;;5.52;;
17741;SDS011;8993;51.822;-2.268;2023-06-22T23:07:54;5.72;;;4.41;;
17741;SDS011;8993;51.822;-2.268;2023-06-22T23:12:58;6.40;;;5.22;;
17741;SDS011;8993;51.822;-2.268;2023-06-22T23:18:03;9.19;;;6.55;;
17741;SDS011;8993;51.822;-2.268;2023-06-22T23:23:07;8.54;;;6.05;;
17741;SDS011;8993;51.822;-2.268;2023-06-22T23:28:11;7.77;;;5.80;;
17741;SDS011;8993;51.822;-2.268;2023-06-22T23:33:16;8.79;;;6.18;;
17741;SDS011;8993;51.822;-2.268;2023-06-22T23:38:20;7.04;;;5.22;;
17741;SDS011;8993;51.822;-2.268;2023-06-22T23:43:25;9.31;;;6.94;;
17741;SDS011;8993;51.822;-2.268;2023-06-22T23:48:29;10.78;;;7.45;;
17741;SDS011;8993;51.822;-2.268;2023-06-22T23:53:33;11.97;;;7.59;;
17741;SDS011;8993;51.822;-2.268;2023-06-22T23:58:38;11.72;;;8.20;;
